Time;durP1;ratioP1;P1;durP2;ratioP2;P2;SDS_P1;SDS_P2;PMS_P1;PMS_P2;Temp;Humidity;BMP_temperature;BMP_pressure;BME280_temperature;BME280_humidity;BME280_pressure;Samples;Min_cycle;Max_cycle;Signal;HPM_P1;HPM_P2
2022/06/23 00:00:48;;;;;;;14.15;8.32;;;20.40;78.80;;;;;;4987750;28;20038;-77
2022/06/23 00:03:20;;;;;;;13.10;7.93;;;20.40;78.60;;;;;;4993820;28;20030;-77
2022/06/23 00:05:54;;;;;;;13.57;7.03;;;20.40;78.90;;;;;;4978844;28;20485;-77
2022/06/23 00:08:20;;;;;;;11.30;6.60;;;20.40;78.80;;;;;;4990533;28;20137;-77
2022/06/23 00:11:11;;;;;;;11.73;7.53;;;20.50;78.90;;;;;;5006602;28;20053;-77
2022/06/23 00:13:38;;;;;;;13.25;8.02;;;20.50;78.90;;;;;;5016878;28;20401;-77
2022/06/23 00:16:06;;;;;;;16.48;8.88;;;20.50;78.80;;;;;;4999974;28;20033;-77
2022/06/23 00:18:34;;;;;;;15.13;9.05;;;20.50;78.20;;;;;;4977498;28;20097;-77
2022/06/23 00:21:00;;;;;;;16.73;8.68;;;20.30;79.30;;;;;;4978522;28;20031;-77
2022/06/23 00:23:35;;;;;;;16.10;9.05;;;20.30;79.20;;;;;;4982823;28;20034;-77
2022/06/23 00:26:07;;;;;;;15.65;9.93;;;20.40;78.60;;;;;;4977425;28;20037;-77
2022/06/23 00:28:45;;;;;;;15.48;9.18;;;20.50;78.50;;;;;;4976956;28;20446;-77
2022/06/23 00:31:41;;;;;;;14.35;9.60;;;20.30;79.40;;;;;;4977735;28;20108;-77
2022/06/23 00:34:23;;;;;;;16.95;10.00;;;20.30;79.90;;;;;;4993468;28;20031;-77
2022/06/23 00:37:06;;;;;;;14.95;9.25;;;20.30;79.80;;;;;;4978215;28;20038;-77
2022/06/23 00:39:42;;;;;;;18.77;11.02;;;20.30;79.60;;;;;;4978474;28;20098;-77
2022/06/23 00:42:23;;;;;;;19.70;10.45;;;20.30;79.50;;;;;;4978115;28;20030;-77
2022/06/23 00:45:04;;;;;;;15.65;10.27;;;20.40;79.50;;;;;;4978239;28;20076;-77
2022/06/23 00:47:49;;;;;;;16.48;9.55;;;20.30;79.40;;;;;;4977394;28;20031;-77
2022/06/23 00:50:22;;;;;;;16.23;10.32;;;20.40;79.10;;;;;;4976496;28;20035;-77
2022/06/23 00:53:12;;;;;;;14.88;9.43;;;20.30;78.90;;;;;;4977900;28;20070;-77
2022/06/23 00:55:56;;;;;;;16.27;9.43;;;20.30;79.30;;;;;;4976232;28;20045;-77
2022/06/23 00:58:44;;;;;;;;;;;;;;;;;;;;;
2022/06/23 01:01:18;;;;;;;17.17;10.23;;;20.10;79.70;;;;;;4982965;28;20018;-77
2022/06/23 01:03:55;;;;;;;16.10;9.75;;;20.00;80.10;;;;;;4976867;28;20058;-77
2022/06/23 01:06:41;;;;;;;15.60;10.38;;;20.00;80.10;;;;;;4977208;28;20029;-77
2022/06/23 01:09:32;;;;;;;19.02;10.88;;;19.90;80.30;;;;;;4986869;28;20037;-77
2022/06/23 01:12:27;;;;;;;15.38;9.82;;;19.80;80.90;;;;;;5009096;28;20059;-77
2022/06/23 01:15:02;;;;;;;18.95;10.30;;;20.00;80.40;;;;;;4977368;28;20046;-77
2022/06/23 01:17:59;;;;;;;17.25;9.52;;;20.00;80.90;;;;;;4977575;28;20150;-77
2022/06/23 01:20:43;;;;;;;16.30;10.32;;;20.00;80.30;;;;;;4985758;28;20490;-77
2022/06/23 01:23:43;;;;;;;16.85;10.25;;;20.10;79.80;;;;;;4995053;28;20026;-77
2022/06/23 01:26:45;;;;;;;;;;;20.00;80.60;;;;;;4997033;28;20030;-77
2022/06/23 01:29:20;;;;;;;14.20;9.60;;;20.00;80.30;;;;;;4981394;28;19988;-77
2022/06/23 01:32:05;;;;;;;16.70;10.57;;;20.00;80.10;;;;;;4979528;28;20039;-77
2022/06/23 01:35:05;;;;;;;17.65;10.63;;;20.10;80.60;;;;;;4985099;28;20034;-77
2022/06/23 01:38:11;;;;;;;18.17;11.10;;;20.00;80.60;;;;;;4990655;28;21000;-77
2022/06/23 01:41:01;;;;;;;31.98;11.38;;;20.10;80.10;;;;;;4985255;28;20547;-77
2022/06/23 01:43:51;;;;;;;41.95;10.75;;;20.00;81.00;;;;;;4975641;28;20033;-77
2022/06/23 01:46:37;;;;;;;29.25;11.75;;;20.00;81.00;;;;;;4991847;28;20039;-77
2022/06/23 01:49:18;;;;;;;32.15;10.65;;;20.10;80.80;;;;;;4979626;28;20026;-77
2022/06/23 01:51:52;;;;;;;30.80;11.75;;;20.10;80.70;;;;;;4996251;28;20027;-77
2022/06/23 01:54:21;;;;;;;21.92;12.15;;;20.00;81.30;;;;;;4994621;28;20393;-77
2022/06/23 01:56:50;;;;;;;21.50;12.27;;;20.00;81.10;;;;;;4996004;28;20053;-77
2022/06/23 01:59:27;;;;;;;20.00;12.02;;;20.00;81.20;;;;;;4994182;28;20031;-77
2022/06/23 02:02:11;;;;;;;18.45;11.60;;;20.00;81.30;;;;;;4996145;28;20129;-77
2022/06/23 02:04:49;;;;;;;20.80;11.50;;;19.90;81.80;;;;;;4994455;28;20097;-77
2022/06/23 02:07:43;;;;;;;18.27;12.05;;;19.80;81.90;;;;;;4988377;28;20038;-76
2022/06/23 02:10:20;;;;;;;20.95;12.07;;;19.80;81.90;;;;;;4983853;28;20033;-77
2022/06/23 02:13:26;;;;;;;21.00;11.82;;;19.80;82.20;;;;;;4995150;28;20031;-77
2022/06/23 02:16:00;;;;;;;21.50;10.25;;;19.80;82.20;;;;;;4976531;28;20026;-76
2022/06/23 02:18:46;;;;;;;22.15;11.07;;;19.80;81.90;;;;;;4975742;28;20018;-76
2022/06/23 02:21:44;;;;;;;18.75;11.85;;;19.80;81.80;;;;;;4974839;28;20065;-77
2022/06/23 02:24:21;;;;;;;16.38;10.18;;;19.80;81.80;;;;;;4987914;28;20057;-76
2022/06/23 02:27:20;;;;;;;22.52;10.85;;;19.80;82.00;;;;;;4995876;28;20054;-76
2022/06/23 02:29:56;;;;;;;17.42;10.43;;;19.70;82.30;;;;;;4994563;28;20022;-77
2022/06/23 02:32:33;;;;;;;13.88;9.20;;;19.70;82.10;;;;;;4994741;28;20033;-77
2022/06/23 02:35:13;;;;;;;14.50;9.40;;;19.60;82.40;;;;;;4995289;28;20441;-77
2022/06/23 02:37:54;;;;;;;16.25;9.68;;;19.60;82.50;;;;;;4993265;28;20089;-77
2022/06/23 02:40:29;;;;;;;13.68;8.73;;;19.60;82.10;;;;;;4997699;28;20030;-77
2022/06/23 02:43:19;;;;;;;12.43;8.60;;;19.60;82.20;;;;;;4998413;28;20045;-77
2022/06/23 02:45:54;;;;;;;;;;;19.60;82.00;;;;;;4991948;28;20034;-77
2022/06/23 02:48:40;;;;;;;15.82;8.43;;;19.70;81.80;;;;;;4999767;28;20710;-77
2022/06/23 02:51:21;;;;;;;12.75;8.88;;;19.60;82.20;;;;;;4997178;28;20109;-77
2022/06/23 02:53:53;;;;;;;12.30;6.63;;;19.60;82.30;;;;;;4997691;28;20022;-77
2022/06/23 02:57:00;;;;;;;14.40;8.45;;;19.50;81.90;;;;;;4999418;28;20310;-77
2022/06/23 02:59:29;;;;;;;10.18;7.07;;;19.60;82.10;;;;;;4985600;28;20271;-76
2022/06/23 03:02:01;;;;;;;15.38;8.73;;;19.60;82.10;;;;;;4998476;28;20533;-77
2022/06/23 03:04:29;;;;;;;11.00;6.93;;;19.60;82.00;;;;;;4998037;28;20049;-77
2022/06/23 03:07:38;;;;;;;11.02;8.18;;;19.60;81.70;;;;;;4998154;28;20118;-77
2022/06/23 03:10:12;;;;;;;12.50;8.25;;;19.60;81.60;;;;;;4994230;28;20061;-76
2022/06/23 03:12:49;;;;;;;10.65;7.50;;;19.60;81.50;;;;;;5018761;28;20022;-77
2022/06/23 03:15:36;;;;;;;14.80;8.25;;;19.50;81.60;;;;;;4981027;28;20038;-76
2022/06/23 03:18:17;;;;;;;14.07;8.45;;;19.50;81.90;;;;;;4979831;28;20034;-77
2022/06/23 03:20:52;;;;;;;11.80;8.20;;;19.60;81.60;;;;;;4978791;28;20065;-77
2022/06/23 03:23:57;;;;;;;12.38;7.57;;;19.50;81.50;;;;;;4983749;28;20034;-77
2022/06/23 03:26:29;;;;;;;12.75;7.75;;;19.60;81.30;;;;;;4993279;28;20051;-77
2022/06/23 03:29:26;;;;;;;17.42;8.50;;;19.70;81.00;;;;;;4978792;28;20374;-77
2022/06/23 03:32:07;;;;;;;12.45;7.65;;;19.70;81.00;;;;;;4979855;28;20500;-77
2022/06/23 03:34:38;;;;;;;12.30;7.57;;;19.70;81.00;;;;;;4979581;28;20038;-76
2022/06/23 03:37:12;;;;;;;15.10;8.63;;;19.50;81.80;;;;;;4979472;28;20390;-77
2022/06/23 03:42:52;;;;;;;14.90;9.27;;;19.60;81.70;;;;;;4998474;28;20100;-77
2022/06/23 03:45:21;;;;;;;15.15;9.02;;;19.50;82.20;;;;;;4995419;28;20037;-77
2022/06/23 03:48:27;;;;;;;14.20;9.02;;;19.60;82.20;;;;;;4978071;28;20031;-76
2022/06/23 03:51:05;;;;;;;15.10;9.00;;;19.50;81.80;;;;;;4977177;28;20054;-77
2022/06/23 03:53:47;;;;;;;15.57;9.52;;;19.60;82.00;;;;;;4979313;28;20038;-76
2022/06/23 03:56:21;;;;;;;17.70;9.73;;;19.60;81.90;;;;;;4977889;28;20046;-76
2022/06/23 03:59:36;;;;;;;15.80;9.35;;;19.70;81.70;;;;;;4977578;28;20645;-77
2022/06/23 04:02:13;;;;;;;20.08;10.35;;;19.70;81.40;;;;;;4978746;28;20049;-77
2022/06/23 04:04:50;;;;;;;23.02;10.95;;;19.70;81.40;;;;;;4978218;28;20035;-77
2022/06/23 04:07:28;;;;;;;17.20;9.80;;;19.70;81.40;;;;;;4978987;28;20026;-77
2022/06/23 04:10:07;;;;;;;14.63;9.63;;;19.70;81.40;;;;;;4980710;28;20023;-77
2022/06/23 04:12:42;;;;;;;17.08;10.95;;;19.70;81.20;;;;;;5017968;28;20033;-77
2022/06/23 04:15:17;;;;;;;21.80;10.68;;;19.60;81.70;;;;;;5002672;28;20031;-77
2022/06/23 04:18:19;;;;;;;17.50;10.07;;;19.60;81.70;;;;;;4996392;28;20397;-77
2022/06/23 04:20:53;;;;;;;17.42;10.10;;;19.60;82.00;;;;;;4981906;28;20070;-76
2022/06/23 04:23:28;;;;;;;20.42;10.70;;;19.50;82.30;;;;;;4982588;28;20018;-77
2022/06/23 04:25:56;;;;;;;16.98;10.07;;;19.50;82.60;;;;;;4998009;28;20053;-77
2022/06/23 04:28:36;;;;;;;17.05;10.80;;;19.50;82.40;;;;;;5004099;28;20031;-77
2022/06/23 04:31:06;;;;;;;22.40;10.88;;;19.50;82.50;;;;;;4978271;28;20418;-77
2022/06/23 04:33:38;;;;;;;22.13;11.35;;;19.50;82.20;;;;;;4978708;28;20121;-77
2022/06/23 04:36:04;;;;;;;17.98;10.20;;;19.50;82.00;;;;;;4978468;28;20051;-77
2022/06/23 04:38:53;;;;;;;18.33;10.52;;;19.50;82.30;;;;;;4976913;28;20169;-77
2022/06/23 04:41:34;;;;;;;18.80;9.50;;;19.50;82.20;;;;;;4976674;28;20086;-78
2022/06/23 04:44:07;;;;;;;24.60;10.63;;;19.50;82.20;;;;;;4976847;28;20066;-81
2022/06/23 04:46:38;;;;;;;16.80;9.88;;;19.50;82.20;;;;;;4978152;28;20046;-83
2022/06/23 04:49:05;;;;;;;;;;;19.60;82.10;;;;;;4978543;28;20033;-84
2022/06/23 04:51:33;;;;;;;17.17;9.38;;;19.60;82.00;;;;;;4977966;28;19917;-83
2022/06/23 04:54:10;;;;;;;15.55;9.88;;;19.70;81.90;;;;;;4976646;28;20031;-82
2022/06/23 04:56:44;;;;;;;16.70;9.73;;;19.70;81.90;;;;;;4987612;28;20050;-82
2022/06/23 04:59:23;;;;;;;12.25;7.80;;;19.80;81.60;;;;;;4996963;28;20033;-78
2022/06/23 05:01:52;;;;;;;19.20;9.27;;;19.60;82.20;;;;;;4996148;28;20030;-81
2022/06/23 05:04:29;;;;;;;17.77;8.60;;;19.60;82.10;;;;;;4988915;28;20044;-78
2022/06/23 05:06:59;;;;;;;16.92;9.65;;;19.40;82.60;;;;;;4996872;28;20030;-85
2022/06/23 05:09:34;;;;;;;13.98;9.30;;;19.50;82.80;;;;;;5012109;28;20030;-86
2022/06/23 05:12:05;;;;;;;14.98;8.52;;;19.50;82.90;;;;;;5026496;28;20037;-79
2022/06/23 05:15:00;;;;;;;27.02;9.70;;;19.50;82.90;;;;;;4995445;28;20109;-79
2022/06/23 05:17:29;;;;;;;15.30;8.77;;;19.50;82.80;;;;;;4972424;28;20798;-82
2022/06/23 05:19:59;;;;;;;14.02;8.52;;;19.60;82.80;;;;;;4976460;28;20031;-81
2022/06/23 05:22:37;;;;;;;14.07;8.95;;;19.70;82.50;;;;;;4986325;28;20038;-77
2022/06/23 05:25:34;;;;;;;16.98;9.00;;;19.80;82.10;;;;;;4995346;28;20526;-78
2022/06/23 05:28:05;;;;;;;11.85;8.90;;;19.80;81.70;;;;;;5002025;28;20034;-79
2022/06/23 05:30:37;;;;;;;14.57;9.30;;;19.90;81.50;;;;;;4977237;28;20031;-78
2022/06/23 05:33:18;;;;;;;12.77;8.77;;;20.00;81.10;;;;;;4975904;28;20027;-80
2022/06/23 05:35:51;;;;;;;13.98;8.93;;;20.10;80.80;;;;;;4977368;28;20027;-79
2022/06/23 05:38:46;;;;;;;13.38;8.30;;;19.90;81.20;;;;;;4986939;28;20389;-79
2022/06/23 05:41:22;;;;;;;16.90;9.75;;;19.90;81.40;;;;;;4974708;28;20066;-79
2022/06/23 05:43:49;;;;;;;15.40;8.98;;;19.90;81.90;;;;;;4995870;28;20096;-79
2022/06/23 05:46:21;;;;;;;16.00;9.35;;;20.00;81.80;;;;;;4991701;28;20026;-79
2022/06/23 05:49:04;;;;;;;12.98;8.70;;;20.10;81.40;;;;;;4986545;28;20122;-79
2022/06/23 05:51:51;;;;;;;16.70;9.48;;;20.20;81.40;;;;;;4976847;28;20378;-79
2022/06/23 05:54:35;;;;;;;16.13;9.60;;;20.20;81.20;;;;;;4977657;28;20077;-79
2022/06/23 05:57:20;;;;;;;12.57;9.30;;;20.30;80.80;;;;;;4994195;28;20086;-78
2022/06/23 05:59:48;;;;;;;14.82;9.45;;;20.40;80.90;;;;;;4992580;28;20026;-82
2022/06/23 06:02:30;;;;;;;11.68;8.02;;;20.60;80.40;;;;;;4992020;28;20501;-80
2022/06/23 06:04:59;;;;;;;15.65;8.63;;;20.40;80.40;;;;;;4981487;28;20045;-79
2022/06/23 06:07:33;;;;;;;15.35;9.68;;;20.40;80.50;;;;;;4977120;28;20038;-79
2022/06/23 06:10:01;;;;;;;17.50;9.52;;;20.30;80.40;;;;;;4982323;28;20038;-79
2022/06/23 06:12:46;;;;;;;17.48;9.98;;;20.30;81.10;;;;;;4985667;28;20026;-79
2022/06/23 06:15:18;;;;;;;17.92;9.93;;;20.30;80.90;;;;;;4984130;28;20042;-79
2022/06/23 06:17:45;;;;;;;14.10;9.77;;;20.30;80.80;;;;;;4987259;28;20044;-80
2022/06/23 06:20:13;;;;;;;15.27;9.35;;;20.30;80.70;;;;;;4992736;28;20630;-80
2022/06/23 06:23:00;;;;;;;15.63;9.75;;;20.30;81.00;;;;;;4983198;28;20075;-79
2022/06/23 06:25:31;;;;;;;15.98;10.27;;;20.30;81.00;;;;;;4978085;28;20177;-79
2022/06/23 06:28:09;;;;;;;17.13;9.82;;;20.30;80.90;;;;;;4979860;28;20525;-79
2022/06/23 06:30:38;;;;;;;15.95;10.15;;;20.40;80.70;;;;;;4976459;28;20038;-79
2022/06/23 06:33:04;;;;;;;12.27;9.07;;;20.50;80.30;;;;;;4976199;28;20019;-79
2022/06/23 06:35:36;;;;;;;15.20;9.27;;;20.60;80.30;;;;;;4980435;28;20062;-79
2022/06/23 06:38:15;;;;;;;18.85;10.02;;;20.60;80.70;;;;;;4990081;28;20584;-79
2022/06/23 06:40:44;;;;;;;14.93;9.52;;;20.50;80.70;;;;;;4976152;28;20039;-79
2022/06/23 06:43:26;;;;;;;15.87;9.60;;;20.60;80.60;;;;;;4975706;28;20077;-79
2022/06/23 06:45:52;;;;;;;16.00;9.48;;;20.70;80.20;;;;;;4993842;28;20051;-79
2022/06/23 06:48:25;;;;;;;12.68;9.10;;;20.50;80.20;;;;;;4994342;28;20389;-79
2022/06/23 06:51:00;;;;;;;16.67;9.43;;;20.40;80.40;;;;;;4974628;28;20035;-79
2022/06/23 06:53:40;;;;;;;14.18;9.15;;;20.40;80.90;;;;;;4974638;28;20453;-79
2022/06/23 06:56:11;;;;;;;;;;;20.70;80.40;;;;;;4991218;28;20051;-79
2022/06/23 06:58:58;;;;;;;15.27;9.30;;;20.80;80.10;;;;;;4990861;28;20369;-79
2022/06/23 07:01:26;;;;;;;14.98;9.05;;;20.80;80.00;;;;;;4976046;28;20023;-79
2022/06/23 07:03:54;;;;;;;14.70;9.02;;;20.90;79.70;;;;;;4975907;28;20026;-79
2022/06/23 07:06:39;;;;;;;13.57;9.30;;;21.00;79.90;;;;;;4976039;28;20031;-79
2022/06/23 07:09:17;;;;;;;15.70;9.27;;;21.20;78.90;;;;;;4973864;28;20023;-79
2022/06/23 07:11:52;;;;;;;11.18;8.25;;;21.40;78.10;;;;;;4997432;28;20023;-79
2022/06/23 07:14:41;;;;;;;16.05;8.52;;;21.50;77.50;;;;;;4982053;28;20027;-79
2022/06/23 07:17:21;;;;;;;11.70;7.75;;;21.30;78.10;;;;;;4974656;28;20086;-79
2022/06/23 07:19:56;;;;;;;14.35;8.90;;;21.30;78.60;;;;;;4974855;28;20033;-79
2022/06/23 07:22:33;;;;;;;13.55;8.50;;;21.40;77.90;;;;;;4976050;28;20027;-79
2022/06/23 07:25:09;;;;;;;12.10;8.02;;;21.60;77.00;;;;;;4992475;28;20042;-79
2022/06/23 07:27:53;;;;;;;11.73;8.18;;;21.70;77.20;;;;;;4994531;28;20041;-79
2022/06/23 07:30:27;;;;;;;12.18;7.47;;;21.90;76.70;;;;;;4979413;28;20031;-79
2022/06/23 07:33:06;;;;;;;12.45;8.02;;;22.30;75.20;;;;;;4994181;28;20050;-79
2022/06/23 07:35:38;;;;;;;7.68;6.47;;;22.70;74.70;;;;;;4998735;28;20026;-79
2022/06/23 07:38:11;;;;;;;10.85;6.65;;;22.50;74.50;;;;;;4998722;28;20076;-79
2022/06/23 07:41:07;;;;;;;8.07;6.15;;;22.60;74.10;;;;;;4996483;28;20031;-79
2022/06/23 07:43:49;;;;;;;8.88;5.80;;;22.50;74.10;;;;;;4997512;28;20054;-79
2022/06/23 07:46:15;;;;;;;7.57;5.20;;;22.40;74.10;;;;;;4998788;28;20550;-79
2022/06/23 07:48:42;;;;;;;9.00;4.78;;;23.20;72.00;;;;;;4993152;28;20129;-79
2022/06/23 07:51:10;;;;;;;5.40;3.60;;;23.10;71.30;;;;;;4977746;28;20061;-79
2022/06/23 07:53:47;;;;;;;4.35;3.50;;;24.20;68.30;;;;;;4979089;28;20116;-79
2022/06/23 07:56:21;;;;;;;8.82;4.25;;;23.80;68.10;;;;;;4978797;28;20038;-79
2022/06/23 07:58:49;;;;;;;6.63;3.60;;;23.90;68.80;;;;;;4978805;28;20100;-79
2022/06/23 08:01:30;;;;;;;3.60;3.05;;;24.70;67.00;;;;;;4986970;28;20102;-80
2022/06/23 08:04:13;;;;;;;4.05;3.10;;;27.40;59.10;;;;;;4996495;28;20058;-79
2022/06/23 08:06:39;;;;;;;4.05;2.53;;;29.30;54.20;;;;;;4998125;28;20034;-80
2022/06/23 08:09:15;;;;;;;3.83;2.22;;;30.10;49.70;;;;;;4998099;28;20037;-80
2022/06/23 08:14:31;;;;;;;2.90;2.47;;;27.30;55.10;;;;;;4991983;28;20034;-79
2022/06/23 08:16:57;;;;;;;3.92;2.40;;;26.00;58.60;;;;;;4978683;28;20106;-79
2022/06/23 08:19:28;;;;;;;4.43;2.85;;;25.30;62.10;;;;;;4978626;28;20065;-79
2022/06/23 08:21:58;;;;;;;7.15;2.70;;;25.20;63.20;;;;;;4976597;28;20051;-79
2022/06/23 08:24:24;;;;;;;4.07;2.75;;;24.70;63.70;;;;;;4990774;28;20034;-79
2022/06/23 08:27:07;;;;;;;5.63;2.88;;;24.30;65.60;;;;;;4997666;28;20081;-79
2022/06/23 08:29:44;;;;;;;4.53;2.80;;;24.00;67.00;;;;;;4983671;28;20050;-79
2022/06/23 08:32:11;;;;;;;5.80;3.50;;;23.80;67.10;;;;;;4977199;28;20027;-79
2022/06/23 08:34:42;;;;;;;5.53;3.28;;;23.50;67.70;;;;;;4977339;28;20655;-77
2022/06/23 08:37:16;;;;;;;8.18;3.38;;;23.20;68.70;;;;;;4995650;28;20180;-78
2022/06/23 08:39:42;;;;;;;9.63;4.10;;;23.30;68.70;;;;;;4997450;28;20151;-78
2022/06/23 08:42:32;;;;;;;7.65;4.38;;;23.30;69.50;;;;;;4996290;28;20515;-78
2022/06/23 08:45:01;;;;;;;5.95;4.03;;;23.30;69.60;;;;;;4995586;28;20436;-78
2022/06/23 08:47:48;;;;;;;5.47;3.58;;;23.00;70.10;;;;;;4995259;28;20023;-77
2022/06/23 08:50:35;;;;;;;5.45;4.50;;;23.00;70.20;;;;;;4996226;28;20781;-77
2022/06/23 08:53:27;;;;;;;8.95;3.97;;;23.20;69.90;;;;;;4982192;28;20082;-77
2022/06/23 08:56:14;;;;;;;7.97;4.55;;;23.20;70.10;;;;;;4977755;28;20039;-80
2022/06/23 08:58:46;;;;;;;6.97;3.83;;;23.20;70.00;;;;;;4977237;28;20076;-78
2022/06/23 09:01:19;;;;;;;9.38;4.82;;;22.90;69.30;;;;;;4976857;28;20034;-78
2022/06/23 09:04:08;;;;;;;8.65;4.53;;;23.00;69.80;;;;;;4976258;28;20513;-78
2022/06/23 09:06:33;;;;;;;8.35;5.25;;;22.90;70.40;;;;;;4977622;28;20061;-80
2022/06/23 09:09:08;;;;;;;7.97;4.47;;;23.00;70.10;;;;;;4977497;28;20035;-80
2022/06/23 09:11:49;;;;;;;7.97;4.30;;;23.30;70.10;;;;;;4996932;28;20056;-78
2022/06/23 09:14:33;;;;;;;7.10;4.53;;;23.30;69.10;;;;;;4992710;28;20529;-78
2022/06/23 09:17:11;;;;;;;11.40;4.65;;;23.40;69.20;;;;;;4975852;28;20066;-78
2022/06/23 09:19:49;;;;;;;10.73;4.35;;;23.50;67.60;;;;;;4977650;28;20374;-78
2022/06/23 09:22:31;;;;;;;9.02;4.20;;;23.60;67.60;;;;;;4977179;28;20022;-78
2022/06/23 09:25:27;;;;;;;8.90;4.00;;;23.70;66.40;;;;;;4993889;28;20382;-80
2022/06/23 09:28:35;;;;;;;6.40;3.58;;;23.80;65.50;;;;;;4976165;28;20031;-77
2022/06/23 09:31:21;;;;;;;6.47;4.30;;;23.70;64.80;;;;;;4984595;28;20050;-78
2022/06/23 09:34:12;;;;;;;8.00;3.90;;;23.70;65.80;;;;;;4995193;28;20062;-77
2022/06/23 09:36:44;;;;;;;6.40;3.13;;;23.70;65.90;;;;;;4993394;28;20041;-78
2022/06/23 09:39:13;;;;;;;7.15;3.50;;;23.90;65.40;;;;;;4994632;28;20062;-78
2022/06/23 09:42:01;;;;;;;7.53;3.45;;;23.90;65.10;;;;;;4976856;28;20398;-77
2022/06/23 09:44:45;;;;;;;7.85;3.97;;;24.10;65.10;;;;;;4975831;28;20512;-78
2022/06/23 09:47:23;;;;;;;6.93;4.10;;;24.60;64.40;;;;;;4992321;28;20054;-78
2022/06/23 09:50:04;;;;;;;4.45;3.15;;;26.20;61.00;;;;;;4996034;28;20037;-77
2022/06/23 09:52:44;;;;;;;9.90;2.80;;;28.20;55.50;;;;;;4994887;28;20529;-78
2022/06/23 09:55:39;;;;;;;5.95;3.30;;;28.30;53.30;;;;;;4988991;28;20034;-78
2022/06/23 09:58:33;;;;;;;6.65;2.90;;;29.30;50.60;;;;;;4975442;28;20079;-77
2022/06/23 10:01:18;;;;;;;4.97;3.08;;;28.90;50.60;;;;;;4995076;28;20263;-78
2022/06/23 10:04:02;;;;;;;5.68;2.70;;;28.20;52.80;;;;;;4996206;28;20034;-78
2022/06/23 10:07:03;;;;;;;5.07;3.25;;;27.50;52.80;;;;;;4987125;28;20442;-78
2022/06/23 10:09:50;;;;;;;5.55;2.53;;;26.60;55.20;;;;;;4976467;28;20038;-78
2022/06/23 10:13:00;;;;;;;5.90;2.67;;;27.90;53.10;;;;;;4990532;28;20030;-78
2022/06/23 10:15:25;;;;;;;5.18;2.65;;;28.40;51.50;;;;;;4995643;28;20033;-78
2022/06/23 10:18:20;;;;;;;4.35;2.70;;;29.10;50.20;;;;;;4993723;28;20026;-78
2022/06/23 10:20:54;;;;;;;3.38;2.13;;;30.30;48.90;;;;;;4994510;28;20132;-78
2022/06/23 10:23:26;;;;;;;8.75;3.00;;;29.70;45.40;;;;;;4995706;28;20053;-78
2022/06/23 10:26:22;;;;;;;4.85;2.40;;;29.90;47.70;;;;;;5010020;28;20480;-78
2022/06/23 10:28:47;;;;;;;3.45;2.20;;;30.80;44.00;;;;;;4975093;28;20520;-78
2022/06/23 10:31:32;;;;;;;6.03;2.47;;;31.70;44.60;;;;;;4975491;28;20035;-78
2022/06/23 10:34:12;;;;;;;5.20;2.05;;;31.60;43.40;;;;;;4974862;28;20054;-78
2022/06/23 10:36:48;;;;;;;5.60;2.25;;;30.60;43.90;;;;;;4976333;28;20027;-78
2022/06/23 10:39:48;;;;;;;4.60;2.30;;;29.70;45.30;;;;;;4976161;28;20417;-78
2022/06/23 10:42:16;;;;;;;3.97;2.28;;;28.50;47.60;;;;;;4987108;28;20026;-78
2022/06/23 10:44:56;;;;;;;5.88;2.40;;;28.10;49.10;;;;;;4995660;28;20504;-78
2022/06/23 10:47:46;;;;;;;4.60;2.15;;;28.40;49.00;;;;;;4995844;28;20089;-78
2022/06/23 10:50:41;;;;;;;5.28;2.45;;;28.20;48.90;;;;;;4992690;28;20034;-77
2022/06/23 10:53:44;;;;;;;4.72;1.77;;;28.20;48.00;;;;;;4994449;28;20041;-77
2022/06/23 10:56:34;;;;;;;5.43;1.90;;;27.70;49.90;;;;;;4993144;28;20077;-78
2022/06/23 10:59:37;;;;;;;5.75;2.42;;;27.20;51.20;;;;;;4995635;28;20393;-77
2022/06/23 11:02:24;;;;;;;4.80;2.20;;;27.40;52.60;;;;;;4998023;28;20034;-77
2022/06/23 11:04:53;;;;;;;3.88;2.05;;;27.50;51.90;;;;;;4994867;28;20034;-77
2022/06/23 11:07:23;;;;;;;5.53;2.20;;;27.40;51.50;;;;;;4980108;28;20099;-77
2022/06/23 11:10:20;;;;;;;6.28;1.92;;;27.40;52.60;;;;;;4981486;28;20486;-77
2022/06/23 11:13:07;;;;;;;3.50;1.90;;;27.60;50.10;;;;;;4997026;28;20058;-77
2022/06/23 11:15:38;;;;;;;2.67;1.60;;;27.50;50.20;;;;;;4998171;28;20022;-77
2022/06/23 11:18:30;;;;;;;3.35;1.83;;;27.10;48.90;;;;;;4997793;28;20022;-77
2022/06/23 11:21:04;;;;;;;2.90;1.83;;;26.80;48.10;;;;;;4997401;28;20034;-78
2022/06/23 11:23:38;;;;;;;3.33;1.75;;;26.60;49.80;;;;;;4997775;28;20081;-77
2022/06/23 11:26:59;;;;;;;4.35;2.20;;;26.40;50.50;;;;;;4997909;28;20037;-77
2022/06/23 11:29:53;;;;;;;3.40;1.95;;;26.80;52.50;;;;;;4997366;28;20047;-77
2022/06/23 11:32:56;;;;;;;3.03;2.10;;;26.80;52.10;;;;;;4998763;28;20082;-77
2022/06/23 11:35:27;;;;;;;3.25;1.83;;;27.00;51.30;;;;;;4979276;28;20102;-77
2022/06/23 11:38:29;;;;;;;3.63;1.83;;;27.00;52.70;;;;;;4980641;28;20469;-77
2022/06/23 11:41:16;;;;;;;3.85;1.83;;;26.90;48.50;;;;;;4996134;28;20026;-77
2022/06/23 11:43:57;;;;;;;4.45;1.90;;;27.00;51.10;;;;;;4977849;28;20069;-77
2022/06/23 11:46:55;;;;;;;4.72;1.48;;;27.10;49.60;;;;;;4978917;28;20023;-77
2022/06/23 11:49:41;;;;;;;3.50;1.80;;;27.10;50.30;;;;;;4984306;28;20054;-78
2022/06/23 11:52:16;;;;;;;2.85;1.60;;;27.00;48.20;;;;;;4997455;28;20342;-77
2022/06/23 11:54:57;;;;;;;2.83;1.48;;;26.90;49.00;;;;;;4998420;28;20026;-77
2022/06/23 11:57:29;;;;;;;2.92;1.60;;;26.80;48.00;;;;;;4993260;28;20062;-77
2022/06/23 12:00:05;;;;;;;3.15;1.48;;;26.90;49.30;;;;;;4979040;28;20128;-77
2022/06/23 12:02:59;;;;;;;3.90;1.50;;;26.90;49.40;;;;;;4978674;28;20501;-77
2022/06/23 12:06:00;;;;;;;3.70;1.75;;;27.00;50.80;;;;;;4989160;28;20053;-77
2022/06/23 12:08:29;;;;;;;3.28;1.60;;;27.20;49.90;;;;;;4991990;28;20046;-77
2022/06/23 12:10:55;;;;;;;2.20;1.48;;;27.00;47.90;;;;;;5001978;28;20034;-78
2022/06/23 12:13:23;;;;;;;3.40;1.70;;;27.30;48.90;;;;;;4990984;28;20537;-77
2022/06/23 12:15:51;;;;;;;4.15;2.00;;;27.40;49.10;;;;;;4977648;28;20027;-77
2022/06/23 12:18:32;;;;;;;3.95;1.65;;;27.30;49.90;;;;;;4977143;28;20061;-77
2022/06/23 12:21:25;;;;;;;2.45;1.63;;;27.20;49.50;;;;;;4978447;28;20122;-78
2022/06/23 12:23:59;;;;;;;4.55;1.65;;;27.20;49.50;;;;;;4987698;28;20030;-77
2022/06/23 12:26:32;;;;;;;4.32;1.65;;;27.10;48.90;;;;;;4997971;28;20034;-77
2022/06/23 12:29:23;;;;;;;2.80;1.60;;;26.80;48.20;;;;;;4977050;28;20031;-77
2022/06/23 12:31:58;;;;;;;4.15;1.65;;;26.90;51.10;;;;;;5006099;28;20027;-77
2022/06/23 12:34:56;;;;;;;1.55;1.10;;;27.00;49.10;;;;;;4978574;28;20454;-77
2022/06/23 12:37:24;;;;;;;2.08;1.48;;;27.30;51.10;;;;;;4978293;28;20019;-77
2022/06/23 12:40:07;;;;;;;5.03;1.90;;;27.20;48.40;;;;;;4978340;28;20030;-77
2022/06/23 12:42:44;;;;;;;3.00;1.60;;;27.30;48.80;;;;;;4976526;28;20062;-77
2022/06/23 12:45:28;;;;;;;2.40;1.13;;;27.20;46.90;;;;;;4978044;28;20027;-77
2022/06/23 12:48:13;;;;;;;1.77;1.25;;;27.30;46.90;;;;;;4978446;28;20034;-77
2022/06/23 12:51:00;;;;;;;3.10;1.33;;;27.20;46.00;;;;;;4977975;28;20486;-77
2022/06/23 12:53:54;;;;;;;5.20;1.67;;;27.10;47.70;;;;;;4976778;28;20556;-77
2022/06/23 12:56:51;;;;;;;4.50;1.48;;;27.00;47.10;;;;;;4976430;28;20061;-77
2022/06/23 12:59:27;;;;;;;3.08;1.60;;;27.00;47.30;;;;;;4977134;28;20026;-77
2022/06/23 13:01:57;;;;;;;2.20;1.40;;;26.90;46.60;;;;;;4976418;28;20027;-78
2022/06/23 13:04:35;;;;;;;3.35;1.70;;;27.30;48.40;;;;;;4976833;28;20039;-77
2022/06/23 13:07:12;;;;;;;2.65;1.27;;;27.30;46.80;;;;;;4976481;28;20035;-77
2022/06/23 13:09:52;;;;;;;2.40;1.08;;;27.40;47.10;;;;;;4977478;28;20039;-77
2022/06/23 13:12:25;;;;;;;2.92;1.48;;;27.60;47.00;;;;;;4992848;28;20105;-77
2022/06/23 13:15:16;;;;;;;3.40;1.30;;;27.80;46.00;;;;;;4985548;28;20030;-77
2022/06/23 13:18:14;;;;;;;2.70;1.20;;;27.90;43.60;;;;;;4976151;28;20366;-77
2022/06/23 13:20:55;;;;;;;6.35;2.08;;;27.70;44.70;;;;;;4985700;28;20137;-77
2022/06/23 13:23:31;;;;;;;1.85;1.40;;;27.30;44.10;;;;;;4980184;28;20018;-77
2022/06/23 13:26:04;;;;;;;3.17;1.08;;;27.00;44.70;;;;;;4997094;28;20038;-77
2022/06/23 13:28:35;;;;;;;3.13;1.27;;;27.40;47.20;;;;;;4993514;28;20041;-77
2022/06/23 13:31:14;;;;;;;2.88;0.93;;;27.70;46.20;;;;;;4975887;28;20185;-77
2022/06/23 13:33:58;;;;;;;;;;;27.90;44.70;;;;;;4976347;28;20728;-77
2022/06/23 13:36:41;;;;;;;4.40;1.40;;;27.70;45.10;;;;;;4976990;28;19906;-77
2022/06/23 13:39:45;;;;;;;3.03;1.35;;;27.20;45.10;;;;;;4981895;28;20039;-78
2022/06/23 13:42:22;;;;;;;3.95;1.40;;;27.00;45.50;;;;;;4976935;28;20023;-77
2022/06/23 13:44:53;;;;;;;4.20;1.15;;;27.40;46.90;;;;;;4977019;28;20030;-77
2022/06/23 13:47:24;;;;;;;1.55;0.90;;;27.70;45.70;;;;;;4981837;28;20053;-77
2022/06/23 13:49:50;;;;;;;2.40;1.40;;;27.40;45.30;;;;;;4996196;28;20030;-77
2022/06/23 13:52:22;;;;;;;2.20;1.08;;;27.30;44.80;;;;;;4993873;28;20201;-77
2022/06/23 13:54:57;;;;;;;17.13;2.63;;;27.80;44.80;;;;;;4994139;28;20117;-77